TAF and METAR

Could not understand the following METAR

YBAS 181300Z AUTO 08003KT 9999 // NCD 20/M01 Q1021

TAF for Alice Springs Airport

TAF YBAS 181107Z 1812/1912 09006KT CAVOK FM182300 06012KT CAVOK
Report created 18. apr 13:07

between 18. apr 14:00 - 19. apr 14:00

wind 6 knots from E (090°) Clear sky

From 19. apr 01:00

wind 12 knots from ENE (060°) Clear sky
Alice Springs Airport in Australia at 541m

Latest 5 airports